createdAt,value
2018-12-11T00:02:07.948Z,78.89
2018-12-11T00:04:37.596Z,78.72
2018-12-11T00:07:07.238Z,79.48
2018-12-11T00:09:37.022Z,79.56
2018-12-11T00:12:06.725Z,79.17
2018-12-11T00:14:36.329Z,79.18
2018-12-11T00:17:05.968Z,79.35
2018-12-11T00:19:35.691Z,79.45
2018-12-11T00:22:05.455Z,79.47
2018-12-11T00:24:35.426Z,79.24
2018-12-11T00:27:05.152Z,79.11
2018-12-11T00:29:34.962Z,79.43
2018-12-11T00:32:04.588Z,79.59
2018-12-11T00:34:34.178Z,78.81
2018-12-11T00:37:03.832Z,79.30
2018-12-11T00:39:33.452Z,79.43
2018-12-11T00:42:03.329Z,79.34
2018-12-11T00:44:33.029Z,79.36
2018-12-11T00:47:02.613Z,78.42
2018-12-11T00:49:32.339Z,79.01
2018-12-11T00:52:01.935Z,79.36
2018-12-11T00:54:31.531Z,79.46
2018-12-11T00:57:01.152Z,79.06
2018-12-11T00:59:31.006Z,79.11
2018-12-11T01:02:00.731Z,79.39
2018-12-11T01:04:30.356Z,78.59
2018-12-11T01:07:00.160Z,79.36
2018-12-11T01:09:29.771Z,79.58
2018-12-11T01:11:59.390Z,79.41
2018-12-11T01:14:28.989Z,79.34
2018-12-11T01:16:58.599Z,79.83
2018-12-11T01:19:28.259Z,79.22
2018-12-11T01:21:57.822Z,79.32
2018-12-11T01:24:27.448Z,79.61
2018-12-11T01:26:57.064Z,79.59
2018-12-11T01:29:26.643Z,79.81
2018-12-11T01:31:56.279Z,79.78
2018-12-11T01:34:25.874Z,79.29
2018-12-11T01:36:55.550Z,79.47
2018-12-11T01:39:25.143Z,80.11
2018-12-11T01:41:54.788Z,79.57
2018-12-11T01:44:24.394Z,79.62
2018-12-11T01:46:54.028Z,80.24
2018-12-11T01:49:23.704Z,79.90
2018-12-11T01:51:53.614Z,80.21
2018-12-11T01:54:23.413Z,80.29
2018-12-11T01:56:53.057Z,80.78
2018-12-11T01:59:22.670Z,80.41
2018-12-11T02:01:52.337Z,81.38
2018-12-11T02:04:21.945Z,80.75
2018-12-11T02:06:51.664Z,80.43
2018-12-11T02:09:21.321Z,80.51
2018-12-11T02:11:50.951Z,80.56
2018-12-11T02:14:20.963Z,79.77
2018-12-11T02:16:50.554Z,80.57
2018-12-11T02:19:20.161Z,80.28
2018-12-11T02:21:49.752Z,80.01
2018-12-11T02:24:19.365Z,80.69
2018-12-11T02:26:48.973Z,80.37
2018-12-11T02:29:18.597Z,80.89
2018-12-11T02:31:48.533Z,80.83
2018-12-11T02:34:18.300Z,80.12
2018-12-11T02:36:47.889Z,79.75
2018-12-11T02:39:17.475Z,80.68
2018-12-11T02:41:47.083Z,79.89
2018-12-11T02:44:16.705Z,80.13
2018-12-11T02:46:46.318Z,80.74
2018-12-11T02:49:15.896Z,80.69
2018-12-11T02:51:45.479Z,80.48
2018-12-11T02:54:15.109Z,80.64
2018-12-11T02:56:44.717Z,80.57
2018-12-11T02:59:14.287Z,80.89
2018-12-11T03:01:43.971Z,81.20
2018-12-11T03:04:13.640Z,81.19
2018-12-11T03:06:43.241Z,80.99
2018-12-11T03:09:12.883Z,80.78
2018-12-11T03:11:42.470Z,81.18
2018-12-11T03:14:12.385Z,80.75
2018-12-11T03:16:41.985Z,80.75
2018-12-11T03:19:11.943Z,80.80
2018-12-11T03:21:41.566Z,80.61
2018-12-11T03:24:11.307Z,80.94
2018-12-11T03:26:40.892Z,80.96
2018-12-11T03:29:10.475Z,80.99
2018-12-11T03:31:40.061Z,80.78
2018-12-11T03:34:11.313Z,80.97
2018-12-11T03:36:40.983Z,81.16
2018-12-11T03:39:10.557Z,82.01
2018-12-11T03:41:40.330Z,81.57
2018-12-11T03:44:09.954Z,81.84
2018-12-11T03:46:39.562Z,81.74
2018-12-11T03:49:09.136Z,81.48
2018-12-11T03:51:38.725Z,82.50
2018-12-11T03:54:08.337Z,81.29
2018-12-11T03:56:37.949Z,82.10
2018-12-11T03:59:07.591Z,81.80
2018-12-11T04:01:37.228Z,81.55
2018-12-11T04:04:06.910Z,81.46
2018-12-11T04:06:36.727Z,81.73
2018-12-11T04:09:07.907Z,81.71
2018-12-11T04:11:37.567Z,82.13
2018-12-11T04:14:07.169Z,82.04
2018-12-11T04:16:36.774Z,81.10
2018-12-11T04:19:06.403Z,81.65
2018-12-11T04:21:35.970Z,81.59
2018-12-11T04:24:05.744Z,81.86
2018-12-11T04:26:35.399Z,81.89
2018-12-11T04:29:05.051Z,82.15
2018-12-11T04:31:34.727Z,81.46
2018-12-11T04:34:04.369Z,82.41
2018-12-11T04:36:33.978Z,81.93
2018-12-11T04:39:04.542Z,81.58
2018-12-11T04:41:34.186Z,81.41
2018-12-11T04:44:03.928Z,81.56
2018-12-11T04:46:33.523Z,81.82
2018-12-11T04:49:03.162Z,81.89
2018-12-11T04:51:32.814Z,81.80
2018-12-11T04:54:02.398Z,81.14
2018-12-11T04:56:31.996Z,81.72
2018-12-11T04:59:01.601Z,81.40
2018-12-11T05:01:31.212Z,81.72
2018-12-11T05:04:00.888Z,80.88
2018-12-11T05:06:30.530Z,81.24
2018-12-11T05:09:00.112Z,81.23
2018-12-11T05:11:29.743Z,80.40
2018-12-11T05:13:59.357Z,80.90
2018-12-11T05:16:28.961Z,80.68
2018-12-11T05:18:58.534Z,80.73
2018-12-11T05:21:28.199Z,81.04
2018-12-11T05:23:57.842Z,81.09
2018-12-11T05:26:27.514Z,81.39
2018-12-11T05:28:57.104Z,81.28
2018-12-11T05:31:27.166Z,81.13
2018-12-11T05:33:56.740Z,81.12
2018-12-11T05:36:26.426Z,81.41
2018-12-11T05:38:56.011Z,81.34
2018-12-11T05:41:25.627Z,81.09
2018-12-11T05:43:55.211Z,81.00
2018-12-11T05:46:24.884Z,81.08
2018-12-11T05:48:54.538Z,81.19
2018-12-11T05:51:24.159Z,81.81
2018-12-11T05:53:53.772Z,81.55
2018-12-11T05:56:23.465Z,82.01
2018-12-11T05:58:53.042Z,81.82
2018-12-11T06:01:22.800Z,81.30
2018-12-11T06:03:52.415Z,81.39
2018-12-11T06:06:22.135Z,80.87
2018-12-11T06:08:51.832Z,81.56
2018-12-11T06:11:21.424Z,81.18
2018-12-11T06:13:51.023Z,81.57
2018-12-11T06:16:21.025Z,81.59
2018-12-11T06:18:50.654Z,80.87
2018-12-11T06:21:20.245Z,81.25
2018-12-11T06:23:49.829Z,80.75
2018-12-11T06:26:19.451Z,81.43
2018-12-11T06:28:49.052Z,81.37
2018-12-11T06:31:18.665Z,80.85
2018-12-11T06:33:48.271Z,80.83
2018-12-11T06:36:17.954Z,81.66
2018-12-11T06:38:47.713Z,81.43
2018-12-11T06:41:17.325Z,81.34
2018-12-11T06:43:46.953Z,81.41
2018-12-11T06:46:16.579Z,80.91
2018-12-11T06:48:46.374Z,81.77
2018-12-11T06:51:16.037Z,81.86
2018-12-11T06:53:45.650Z,82.10
2018-12-11T06:56:15.275Z,81.76
2018-12-11T06:58:44.880Z,81.96
2018-12-11T07:01:14.493Z,81.93
2018-12-11T07:03:44.094Z,81.42
2018-12-11T07:06:13.693Z,81.33
2018-12-11T07:08:43.292Z,81.41
2018-12-11T07:11:12.935Z,81.31
2018-12-11T07:13:42.548Z,81.31
2018-12-11T07:16:12.150Z,81.45
2018-12-11T07:18:41.827Z,81.66
2018-12-11T07:21:11.604Z,81.00
2018-12-11T07:23:41.277Z,81.54
2018-12-11T07:26:10.871Z,80.74
2018-12-11T07:28:40.509Z,81.14
2018-12-11T07:31:10.106Z,81.54
2018-12-11T07:33:39.703Z,80.74
2018-12-11T07:36:09.530Z,81.11
2018-12-11T07:38:39.186Z,81.41
2018-12-11T07:41:08.917Z,81.31
2018-12-11T07:43:38.531Z,80.90
2018-12-11T07:46:08.237Z,81.16
2018-12-11T07:48:37.962Z,80.86
2018-12-11T07:51:07.806Z,80.96
2018-12-11T07:53:37.465Z,81.17
2018-12-11T07:56:07.082Z,80.91
2018-12-11T07:58:36.687Z,80.49
2018-12-11T08:01:06.447Z,81.01
2018-12-11T08:03:36.156Z,80.54
2018-12-11T08:06:05.750Z,80.78
2018-12-11T08:08:35.417Z,80.55
2018-12-11T08:11:05.008Z,80.79
2018-12-11T08:13:34.630Z,80.92
2018-12-11T08:16:04.237Z,80.95
2018-12-11T08:18:33.937Z,81.19
2018-12-11T08:21:03.541Z,81.15
2018-12-11T08:23:33.111Z,80.58
2018-12-11T08:26:02.745Z,80.57
2018-12-11T08:28:32.359Z,81.45
2018-12-11T08:31:01.946Z,81.19
2018-12-11T08:33:31.614Z,80.81
2018-12-11T08:36:01.274Z,81.16
2018-12-11T08:38:31.309Z,80.82
2018-12-11T08:41:01.060Z,80.71
2018-12-11T08:43:30.658Z,80.62
2018-12-11T08:46:00.302Z,80.92
2018-12-11T08:48:29.953Z,80.54
2018-12-11T08:50:59.581Z,80.78
2018-12-11T08:53:29.461Z,80.20
2018-12-11T08:55:59.159Z,80.28
2018-12-11T08:58:28.758Z,80.48
2018-12-11T09:00:58.596Z,80.12
2018-12-11T09:03:28.425Z,80.21
2018-12-11T09:05:58.038Z,80.75
2018-12-11T09:08:27.628Z,80.76
2018-12-11T09:10:57.239Z,80.25
2018-12-11T09:13:26.936Z,80.26
2018-12-11T09:15:56.573Z,80.35
2018-12-11T09:18:26.307Z,79.59
2018-12-11T09:20:55.870Z,79.61
2018-12-11T09:23:25.752Z,80.05
2018-12-11T09:25:55.467Z,80.00
2018-12-11T09:28:25.373Z,79.37
2018-12-11T09:30:54.998Z,79.24
2018-12-11T09:33:24.623Z,79.32
2018-12-11T09:35:54.209Z,79.62
2018-12-11T09:38:23.800Z,79.78
2018-12-11T09:40:53.383Z,79.23
2018-12-11T09:43:22.968Z,78.83
2018-12-11T09:45:52.652Z,79.24
2018-12-11T09:48:22.305Z,79.63
2018-12-11T09:50:51.922Z,78.58
2018-12-11T09:53:21.544Z,79.03
2018-12-11T09:55:51.148Z,79.20
2018-12-11T09:58:20.832Z,79.12
2018-12-11T10:00:50.434Z,78.74
2018-12-11T10:03:20.126Z,78.55
2018-12-11T10:05:49.818Z,78.63
2018-12-11T10:08:19.980Z,78.70
2018-12-11T10:10:50.229Z,78.34
2018-12-11T10:13:19.849Z,78.03
2018-12-11T10:15:49.493Z,77.98
2018-12-11T10:18:20.281Z,78.25
2018-12-11T10:20:49.932Z,77.91
2018-12-11T10:23:20.438Z,78.36
2018-12-11T10:25:50.052Z,77.84
2018-12-11T10:28:19.659Z,78.12
2018-12-11T10:30:49.295Z,77.81
2018-12-11T10:33:18.995Z,78.41
2018-12-11T10:35:48.652Z,77.17
2018-12-11T10:38:18.228Z,77.69
2018-12-11T10:40:47.847Z,77.98
2018-12-11T10:43:17.452Z,77.33
2018-12-11T10:45:47.041Z,77.46
2018-12-11T10:48:17.176Z,77.77
2018-12-11T10:50:46.749Z,77.20
2018-12-11T10:53:16.410Z,77.33
2018-12-11T10:55:46.265Z,77.46
2018-12-11T10:58:15.868Z,77.28
2018-12-11T11:03:37.602Z,76.95
2018-12-11T11:06:07.223Z,77.47
2018-12-11T11:08:36.798Z,77.09
2018-12-11T11:11:06.477Z,76.97
2018-12-11T11:13:36.181Z,76.26
2018-12-11T11:16:07.518Z,76.24
2018-12-11T11:18:37.527Z,76.51
2018-12-11T11:21:07.239Z,75.74
2018-12-11T11:23:36.964Z,75.74
2018-12-11T11:26:06.859Z,75.76
2018-12-11T11:28:36.514Z,75.98
2018-12-11T11:31:06.224Z,75.97
2018-12-11T11:33:35.825Z,75.52
2018-12-11T11:36:05.496Z,75.47
2018-12-11T11:38:35.068Z,75.30
2018-12-11T11:41:04.675Z,75.07
2018-12-11T11:43:34.250Z,75.10
2018-12-11T11:46:03.861Z,74.77
2018-12-11T11:48:33.562Z,74.58
2018-12-11T11:51:03.402Z,74.32
2018-12-11T11:53:33.007Z,74.24
2018-12-11T11:56:02.702Z,73.48
2018-12-11T11:58:32.402Z,73.91
2018-12-11T12:01:02.076Z,74.28
2018-12-11T12:03:31.772Z,74.28
2018-12-11T12:06:01.669Z,73.99
2018-12-11T12:08:31.290Z,74.42
2018-12-11T12:11:00.918Z,74.25
2018-12-11T12:13:30.536Z,74.50
2018-12-11T12:16:00.117Z,74.44
2018-12-11T12:18:29.710Z,74.17
2018-12-11T12:20:59.304Z,73.71
2018-12-11T12:23:28.942Z,73.84
2018-12-11T12:25:58.554Z,73.96
2018-12-11T12:28:28.388Z,74.31
2018-12-11T12:30:58.431Z,74.12
2018-12-11T12:33:28.381Z,73.44
2018-12-11T12:35:57.991Z,73.66
2018-12-11T12:38:28.584Z,72.92
2018-12-11T12:40:58.188Z,73.15
2018-12-11T12:43:27.782Z,73.37
2018-12-11T12:45:57.416Z,73.62
2018-12-11T12:48:27.075Z,73.04
2018-12-11T12:50:56.767Z,73.21
2018-12-11T12:53:26.412Z,73.32
2018-12-11T12:55:56.135Z,73.43
2018-12-11T12:58:25.697Z,73.10
2018-12-11T13:00:55.335Z,73.14
2018-12-11T13:03:25.292Z,72.83
2018-12-11T13:05:54.945Z,72.84
2018-12-11T13:08:24.513Z,73.28
2018-12-11T13:10:54.186Z,73.18
2018-12-11T13:13:23.811Z,72.84
2018-12-11T13:15:53.442Z,72.89
2018-12-11T13:18:23.124Z,73.35
2018-12-11T13:20:52.746Z,73.46
2018-12-11T13:23:22.350Z,72.70
2018-12-11T13:25:51.981Z,72.94
2018-12-11T13:28:22.737Z,73.12
2018-12-11T13:30:52.627Z,73.48
2018-12-11T13:33:22.310Z,73.65
2018-12-11T13:35:51.898Z,73.21
2018-12-11T13:38:21.499Z,73.59
2018-12-11T13:40:51.417Z,73.27
2018-12-11T13:43:21.143Z,73.35
2018-12-11T13:45:50.790Z,73.50
2018-12-11T13:48:23.548Z,73.51
2018-12-11T13:50:52.568Z,73.46
2018-12-11T13:53:22.433Z,73.22
2018-12-11T13:55:52.075Z,73.27
2018-12-11T13:58:21.785Z,73.76
2018-12-11T14:00:52.222Z,74.03
2018-12-11T14:03:23.137Z,74.57
2018-12-11T14:05:52.881Z,74.14
2018-12-11T14:08:22.569Z,74.09
2018-12-11T14:10:53.112Z,74.40
2018-12-11T14:13:25.961Z,74.24
2018-12-11T14:15:55.728Z,74.39
2018-12-11T14:18:25.503Z,74.48
2018-12-11T14:20:55.297Z,74.23
2018-12-11T14:23:25.170Z,74.48
2018-12-11T14:25:56.094Z,74.18
2018-12-11T14:28:25.690Z,74.64
2018-12-11T14:30:55.404Z,74.95
2018-12-11T14:33:25.360Z,74.60
2018-12-11T14:35:56.332Z,74.36
2018-12-11T14:38:27.009Z,74.51
2018-12-11T14:40:57.941Z,74.43
2018-12-11T14:43:27.818Z,74.42
2018-12-11T14:45:58.850Z,74.62
2018-12-11T14:48:28.664Z,74.01
2018-12-11T14:50:59.498Z,74.31
2018-12-11T14:53:29.310Z,74.74
2018-12-11T14:55:59.476Z,74.10
2018-12-11T14:58:31.163Z,74.55
2018-12-11T15:01:00.847Z,74.48
2018-12-11T15:03:31.471Z,74.52
2018-12-11T15:06:01.313Z,74.37
2018-12-11T15:08:31.033Z,74.73
2018-12-11T15:11:01.628Z,74.19
2018-12-11T15:13:31.362Z,74.56
2018-12-11T15:16:01.167Z,74.58
2018-12-11T15:18:32.448Z,74.81
2018-12-11T15:21:11.637Z,74.65
2018-12-11T15:23:41.784Z,74.72
2018-12-11T15:26:12.199Z,74.78
2018-12-11T15:28:43.948Z,74.81
2018-12-11T15:31:14.157Z,74.23
2018-12-11T15:33:44.137Z,75.25
2018-12-11T15:36:13.905Z,75.09
2018-12-11T15:38:44.291Z,75.09
2018-12-11T15:41:14.354Z,74.81
2018-12-11T15:43:44.060Z,75.23
2018-12-11T15:46:13.815Z,75.46
2018-12-11T15:48:45.286Z,74.90
2018-12-11T15:51:16.030Z,75.10
2018-12-11T15:53:47.834Z,75.29
2018-12-11T15:56:18.073Z,75.27
2018-12-11T15:58:48.020Z,75.22
2018-12-11T16:01:18.207Z,75.33
2018-12-11T16:03:48.192Z,75.30
2018-12-11T16:06:18.850Z,75.53
2018-12-11T16:08:48.772Z,75.40
2018-12-11T16:11:21.066Z,75.37
2018-12-11T16:13:52.344Z,75.48
2018-12-11T16:16:23.897Z,75.47
2018-12-11T16:18:53.567Z,75.09
2018-12-11T16:21:24.634Z,75.97
2018-12-11T16:23:54.615Z,75.96
2018-12-11T16:26:24.356Z,76.31
2018-12-11T16:28:54.193Z,75.73
2018-12-11T16:31:24.291Z,76.27
2018-12-11T16:33:54.147Z,76.42
2018-12-11T16:36:27.367Z,76.28
2018-12-11T16:38:58.858Z,76.65
2018-12-11T16:41:28.857Z,76.62
2018-12-11T16:43:59.962Z,76.10
2018-12-11T16:46:30.359Z,75.98
2018-12-11T16:49:00.136Z,76.21
2018-12-11T16:51:31.204Z,75.98
2018-12-11T16:54:01.264Z,75.72
2018-12-11T16:56:31.379Z,75.52
2018-12-11T16:59:01.672Z,76.10
2018-12-11T17:01:34.100Z,75.90
2018-12-11T17:04:04.033Z,76.30
2018-12-11T17:06:33.775Z,75.52
2018-12-11T17:09:05.556Z,75.86
2018-12-11T17:11:36.483Z,75.69
2018-12-11T17:14:06.761Z,76.02
2018-12-11T17:16:36.867Z,75.53
2018-12-11T17:19:06.756Z,75.96
2018-12-11T17:21:36.561Z,76.18
2018-12-11T17:24:08.532Z,76.12
2018-12-11T17:26:38.999Z,75.95
2018-12-11T17:29:08.628Z,75.67
2018-12-11T17:31:38.553Z,76.18
2018-12-11T17:34:08.841Z,75.54
2018-12-11T17:36:41.743Z,75.92
2018-12-11T17:39:23.276Z,76.10
2018-12-11T17:41:53.556Z,76.51
2018-12-11T17:44:23.362Z,75.91
2018-12-11T17:46:53.836Z,76.44
2018-12-11T17:49:24.218Z,76.15
2018-12-11T17:51:54.526Z,76.31
2018-12-11T17:54:24.379Z,76.31
2018-12-11T17:56:54.327Z,76.34
2018-12-11T17:59:26.758Z,76.06
2018-12-11T18:01:58.315Z,76.70
2018-12-11T18:04:29.188Z,75.94
2018-12-11T18:06:59.339Z,75.88
2018-12-11T18:09:31.907Z,76.18
2018-12-11T18:12:02.790Z,76.37
2018-12-11T18:14:32.806Z,76.15
2018-12-11T18:17:02.429Z,76.17
2018-12-11T18:19:33.784Z,76.00
2018-12-11T18:22:03.958Z,75.94
2018-12-11T18:24:33.555Z,76.11
2018-12-11T18:27:04.332Z,75.97
2018-12-11T18:29:34.101Z,75.98
2018-12-11T18:32:04.299Z,76.14
2018-12-11T18:34:36.080Z,75.78
2018-12-11T18:37:06.263Z,75.74
2018-12-11T18:39:36.200Z,76.09
2018-12-11T18:42:06.037Z,75.78
2018-12-11T18:44:37.133Z,75.94
2018-12-11T18:47:06.899Z,75.74
2018-12-11T18:49:36.765Z,75.65
2018-12-11T18:52:06.445Z,75.64
2018-12-11T18:54:36.868Z,75.85
2018-12-11T18:57:07.493Z,75.84
2018-12-11T18:59:37.128Z,76.36
2018-12-11T19:02:06.935Z,76.09
2018-12-11T19:04:36.582Z,75.75
2018-12-11T19:07:06.225Z,75.81
2018-12-11T19:09:36.637Z,76.24
2018-12-11T19:12:09.369Z,76.24
2018-12-11T19:14:39.289Z,76.54
2018-12-11T19:17:09.552Z,76.03
2018-12-11T19:19:39.616Z,76.64
2018-12-11T19:22:09.580Z,76.55
2018-12-11T19:24:39.585Z,76.09
2018-12-11T19:27:09.674Z,75.86
2018-12-11T19:29:39.658Z,76.13
2018-12-11T19:32:09.383Z,76.48
2018-12-11T19:34:39.911Z,76.51
2018-12-11T19:37:10.065Z,75.87
2018-12-11T19:39:39.979Z,76.51
2018-12-11T19:42:09.731Z,76.26
2018-12-11T19:44:41.068Z,76.57
2018-12-11T19:47:11.494Z,76.48
2018-12-11T19:49:42.186Z,76.17
2018-12-11T19:52:11.960Z,76.15
2018-12-11T19:54:42.934Z,76.24
2018-12-11T19:57:12.763Z,76.18
2018-12-11T19:59:43.094Z,76.28
2018-12-11T20:02:12.962Z,76.39
2018-12-11T20:04:43.624Z,75.81
2018-12-11T20:07:15.168Z,76.17
2018-12-11T20:09:51.586Z,75.87
2018-12-11T20:12:21.350Z,76.34
2018-12-11T20:14:51.090Z,76.03
2018-12-11T20:17:20.815Z,76.19
2018-12-11T20:19:51.740Z,76.07
2018-12-11T20:22:21.894Z,76.29
2018-12-11T20:24:51.786Z,76.05
2018-12-11T20:27:21.351Z,76.16
2018-12-11T20:29:51.688Z,76.04
2018-12-11T20:32:21.404Z,76.42
2018-12-11T20:34:51.284Z,76.43
2018-12-11T20:37:21.481Z,76.34
2018-12-11T20:39:53.211Z,76.52
2018-12-11T20:42:24.563Z,76.31
2018-12-11T20:44:54.651Z,76.77
2018-12-11T20:47:24.340Z,76.47
2018-12-11T20:49:54.850Z,76.12
2018-12-11T20:52:24.754Z,76.19
2018-12-11T20:57:59.109Z,76.11
2018-12-11T21:00:32.706Z,76.60
2018-12-11T21:03:03.517Z,76.34
2018-12-11T21:05:34.661Z,76.35
2018-12-11T21:08:04.797Z,76.78
2018-12-11T21:10:35.942Z,76.38
2018-12-11T21:13:06.167Z,76.66
2018-12-11T21:15:36.251Z,76.99
2018-12-11T21:18:05.997Z,76.95
2018-12-11T21:20:35.865Z,77.27
2018-12-11T21:23:06.507Z,76.54
2018-12-11T21:25:36.259Z,77.30
2018-12-11T21:28:06.848Z,76.75
2018-12-11T21:30:36.917Z,77.05
2018-12-11T21:33:07.135Z,77.00
2018-12-11T21:35:37.924Z,76.99
2018-12-11T21:38:10.035Z,76.88
2018-12-11T21:40:41.117Z,76.99
2018-12-11T21:43:13.807Z,77.55
2018-12-11T21:45:44.256Z,77.04
2018-12-11T21:48:14.225Z,77.22
2018-12-11T21:50:44.470Z,77.90
2018-12-11T21:53:16.206Z,77.32
2018-12-11T21:55:46.119Z,78.00
2018-12-11T21:58:15.881Z,77.32
2018-12-11T22:00:45.700Z,77.64
2018-12-11T22:03:16.106Z,78.08
2018-12-11T22:05:49.054Z,77.74
2018-12-11T22:08:19.657Z,78.14
2018-12-11T22:10:50.090Z,78.34
2018-12-11T22:13:20.196Z,78.16
2018-12-11T22:15:51.543Z,77.97
2018-12-11T22:18:21.349Z,78.10
2018-12-11T22:20:51.424Z,77.63
2018-12-11T22:23:22.568Z,77.71
2018-12-11T22:25:52.286Z,77.80
2018-12-11T22:28:21.961Z,77.92
2018-12-11T22:30:51.574Z,78.18
2018-12-11T22:33:21.222Z,78.08
2018-12-11T22:35:50.891Z,78.07
2018-12-11T22:38:20.547Z,77.77
2018-12-11T22:40:50.117Z,78.25
2018-12-11T22:43:21.172Z,78.41
2018-12-11T22:45:51.707Z,78.10
2018-12-11T22:48:21.312Z,77.95
2018-12-11T22:50:51.205Z,77.93
2018-12-11T22:53:20.809Z,78.00
2018-12-11T22:55:50.460Z,78.46
2018-12-11T22:58:21.482Z,78.27
2018-12-11T23:00:51.377Z,78.22
2018-12-11T23:03:21.227Z,78.60
2018-12-11T23:05:51.518Z,77.81
2018-12-11T23:08:21.372Z,78.62
2018-12-11T23:10:52.451Z,78.30
2018-12-11T23:13:23.296Z,78.18
2018-12-11T23:15:54.468Z,78.04
2018-12-11T23:18:24.602Z,78.28
2018-12-11T23:20:56.040Z,78.67
2018-12-11T23:23:26.115Z,77.88
2018-12-11T23:25:57.197Z,78.55
2018-12-11T23:28:27.128Z,78.57
2018-12-11T23:30:56.958Z,78.54
2018-12-11T23:33:26.744Z,78.83
2018-12-11T23:35:56.871Z,78.98
2018-12-11T23:38:26.886Z,79.05
2018-12-11T23:40:58.655Z,78.84
2018-12-11T23:43:28.347Z,79.16
2018-12-11T23:45:59.361Z,78.43
2018-12-11T23:48:29.456Z,78.72
2018-12-11T23:50:59.939Z,78.62
2018-12-11T23:53:30.164Z,79.10
2018-12-11T23:56:00.049Z,79.18
2018-12-11T23:58:30.359Z,79.08
